Terminal Aerodrome Forecast
Issued by NWS Mt. Holly, NJ

Home | Current Version | Previous Version | Text Only | Print | Product List | Glossary On
Versions: 1 2 3 4 5 6 7 8 9 10 11 12 13 14 15 16 17 18 19 20 21 22
000
FTUS41 KPHI 271100
TAFPHL
TAF
KPHL 271129Z 2712/2818 23004KT P6SM FEW250
     FM271600 23008KT P6SM SCT250
     FM280300 25005KT P6SM BKN050
     FM280500 30006KT P6SM BKN050
     FM280700 34008KT P6SM SCT050
     FM281300 33010G18KT P6SM SKC=

USA.gov is the U.S. government's official web portal to all federal, state and local government web resources and services.